createdAt,value
2023-05-17T00:02:20.990Z,69.68
2023-05-17T00:04:48.731Z,69.78
2023-05-17T00:07:16.854Z,69.68
2023-05-17T00:09:46.349Z,69.74
2023-05-17T00:12:13.446Z,69.63
2023-05-17T00:14:40.940Z,69.81
2023-05-17T00:17:08.045Z,69.81
2023-05-17T00:19:37.131Z,69.84
2023-05-17T00:22:06.030Z,69.87
2023-05-17T00:24:35.131Z,69.79
2023-05-17T00:27:02.764Z,69.94
2023-05-17T00:29:29.936Z,69.78
2023-05-17T00:31:56.986Z,69.88
2023-05-17T00:34:25.739Z,69.83
2023-05-17T00:36:54.621Z,69.98
2023-05-17T00:39:22.580Z,69.87
2023-05-17T00:41:49.740Z,69.70
2023-05-17T00:44:17.027Z,69.65
2023-05-17T00:46:47.001Z,69.75
2023-05-17T00:49:15.339Z,69.57
2023-05-17T00:51:49.481Z,69.94
2023-05-17T00:54:21.663Z,69.72
2023-05-17T00:56:54.623Z,69.78
2023-05-17T00:59:23.538Z,69.97
2023-05-17T01:01:51.720Z,70.15
2023-05-17T01:04:19.376Z,69.93
2023-05-17T01:06:48.183Z,69.74
2023-05-17T01:09:18.558Z,69.86
2023-05-17T01:11:57.041Z,69.78
2023-05-17T01:14:35.280Z,69.95
2023-05-17T01:17:18.751Z,70.00
2023-05-17T01:20:26.402Z,69.94
2023-05-17T01:23:21.051Z,69.84
2023-05-17T01:26:08.497Z,70.03
2023-05-17T01:28:40.055Z,69.68
2023-05-17T01:31:10.441Z,69.90
2023-05-17T01:33:39.727Z,69.92
2023-05-17T01:36:09.659Z,69.88
2023-05-17T01:38:36.913Z,69.84
2023-05-17T01:41:37.753Z,70.06
2023-05-17T01:44:06.733Z,70.01
2023-05-17T01:46:41.852Z,70.10
2023-05-17T01:49:22.126Z,70.14
2023-05-17T01:52:04.581Z,70.26
2023-05-17T01:54:46.956Z,69.97
2023-05-17T01:57:16.367Z,70.19
2023-05-17T01:59:45.873Z,70.20
2023-05-17T02:02:14.135Z,70.27
2023-05-17T02:04:41.517Z,70.18
2023-05-17T02:07:11.027Z,70.14
2023-05-17T02:09:40.143Z,70.28
2023-05-17T02:12:08.395Z,70.24
2023-05-17T02:14:36.285Z,69.95
2023-05-17T02:17:06.053Z,70.26
2023-05-17T02:19:34.187Z,70.17
2023-05-17T02:22:02.574Z,70.33
2023-05-17T02:24:32.069Z,70.29
2023-05-17T02:26:59.478Z,70.41
2023-05-17T02:29:26.868Z,70.45
2023-05-17T02:31:54.170Z,70.56
2023-05-17T02:34:23.047Z,70.47
2023-05-17T02:36:53.386Z,70.69
2023-05-17T02:39:23.417Z,70.57
2023-05-17T02:41:51.149Z,70.56
2023-05-17T02:44:18.622Z,70.65
2023-05-17T02:46:46.253Z,70.60
2023-05-17T02:49:15.633Z,70.91
2023-05-17T02:51:43.868Z,70.86
2023-05-17T02:54:13.493Z,70.99
2023-05-17T02:56:41.309Z,70.97
2023-05-17T02:59:09.233Z,70.92
2023-05-17T03:01:38.723Z,70.97
2023-05-17T03:04:07.929Z,71.10
2023-05-17T03:06:36.709Z,71.00
2023-05-17T03:09:05.608Z,70.93
2023-05-17T03:11:33.373Z,70.84
2023-05-17T03:14:02.850Z,70.97
2023-05-17T03:16:31.664Z,70.97
2023-05-17T03:19:01.843Z,70.84
2023-05-17T03:21:31.427Z,70.85
2023-05-17T03:24:00.413Z,71.01
2023-05-17T03:26:28.819Z,70.91
2023-05-17T03:28:56.064Z,70.91
2023-05-17T03:31:23.958Z,70.97
2023-05-17T03:33:52.552Z,71.11
2023-05-17T03:36:22.975Z,70.88
2023-05-17T03:38:52.577Z,71.19
2023-05-17T03:41:19.829Z,70.89
2023-05-17T03:43:47.287Z,70.99
2023-05-17T03:46:16.066Z,71.04
2023-05-17T03:48:44.902Z,71.23
2023-05-17T03:51:14.118Z,71.13
2023-05-17T03:53:44.232Z,71.28
2023-05-17T03:56:13.027Z,71.45
2023-05-17T03:58:40.324Z,71.44
2023-05-17T04:01:07.653Z,71.41
2023-05-17T04:03:36.474Z,71.48
2023-05-17T04:06:09.867Z,71.51
2023-05-17T04:08:41.222Z,71.44
2023-05-17T04:11:16.181Z,71.54
2023-05-17T04:13:46.881Z,71.42
2023-05-17T04:16:16.180Z,71.38
2023-05-17T04:18:43.582Z,71.38
2023-05-17T04:21:12.227Z,71.53
2023-05-17T04:23:41.631Z,71.61
2023-05-17T04:26:11.542Z,71.66
2023-05-17T04:28:42.181Z,71.90
2023-05-17T04:31:11.067Z,71.69
2023-05-17T04:33:38.974Z,71.80
2023-05-17T04:36:08.640Z,72.02
2023-05-17T04:38:37.127Z,72.04
2023-05-17T04:41:07.103Z,72.19
2023-05-17T04:43:37.127Z,72.32
2023-05-17T04:46:08.866Z,72.61
2023-05-17T04:48:37.766Z,72.33
2023-05-17T04:51:07.689Z,72.29
2023-05-17T04:53:37.447Z,72.41
2023-05-17T04:56:10.238Z,72.60
2023-05-17T04:58:37.521Z,72.70
2023-05-17T05:01:06.241Z,72.56
2023-05-17T05:03:35.725Z,72.83
2023-05-17T05:06:06.255Z,72.87
2023-05-17T05:08:36.284Z,72.92
2023-05-17T05:11:08.354Z,72.99
2023-05-17T05:13:38.397Z,72.90
2023-05-17T05:16:07.024Z,72.90
2023-05-17T05:18:35.577Z,73.04
2023-05-17T05:21:04.787Z,73.06
2023-05-17T05:23:33.997Z,73.19
2023-05-17T05:26:07.153Z,73.31
2023-05-17T05:28:35.609Z,73.29
2023-05-17T05:31:04.573Z,73.35
2023-05-17T05:33:41.647Z,73.40
2023-05-17T05:36:10.240Z,73.41
2023-05-17T05:38:38.741Z,73.49
2023-05-17T05:41:07.408Z,73.60
2023-05-17T05:43:37.731Z,73.63
2023-05-17T05:46:05.113Z,73.73
2023-05-17T05:48:32.538Z,73.74
2023-05-17T05:51:00.207Z,73.78
2023-05-17T05:53:27.562Z,73.83
2023-05-17T05:55:59.134Z,73.77
2023-05-17T05:58:26.576Z,73.80
2023-05-17T06:00:53.749Z,73.85
2023-05-17T06:03:21.074Z,73.84
2023-05-17T06:05:49.574Z,73.80
2023-05-17T06:08:18.657Z,73.93
2023-05-17T06:10:49.394Z,73.86
2023-05-17T06:13:16.569Z,73.97
2023-05-17T06:15:43.721Z,74.02
2023-05-17T06:18:11.105Z,74.02
2023-05-17T06:20:39.710Z,74.06
2023-05-17T06:23:07.107Z,74.09
2023-05-17T06:25:34.427Z,74.05
2023-05-17T06:28:03.129Z,74.13
2023-05-17T06:30:31.431Z,74.18
2023-05-17T06:32:59.180Z,74.26
2023-05-17T06:35:26.487Z,74.14
2023-05-17T06:37:55.029Z,74.18
2023-05-17T06:40:22.295Z,74.35
2023-05-17T06:42:49.464Z,74.28
2023-05-17T06:45:17.122Z,74.37
2023-05-17T06:47:44.493Z,74.32
2023-05-17T06:50:11.940Z,74.35
2023-05-17T06:52:46.293Z,74.31
2023-05-17T06:55:15.728Z,74.23
2023-05-17T06:57:45.193Z,74.34
2023-05-17T07:00:13.224Z,74.29
2023-05-17T07:02:40.764Z,74.41
2023-05-17T07:05:11.355Z,74.46
2023-05-17T07:07:42.199Z,74.15
2023-05-17T07:10:12.833Z,75.23
2023-05-17T07:12:43.376Z,75.85
2023-05-17T07:15:18.342Z,75.73
2023-05-17T07:17:48.633Z,75.67
2023-05-17T07:20:17.021Z,75.63
2023-05-17T07:22:46.502Z,75.23
2023-05-17T07:25:24.147Z,75.15
2023-05-17T07:27:55.296Z,75.02
2023-05-17T07:30:25.660Z,74.90
2023-05-17T07:32:54.417Z,74.89
2023-05-17T07:35:24.361Z,74.96
2023-05-17T07:37:56.919Z,74.92
2023-05-17T07:40:30.659Z,75.04
2023-05-17T07:43:03.011Z,74.76
2023-05-17T07:45:34.408Z,74.80
2023-05-17T07:48:05.731Z,74.77
2023-05-17T07:50:37.084Z,74.78
2023-05-17T07:53:05.518Z,74.83
2023-05-17T07:55:35.389Z,74.84
2023-05-17T07:58:05.919Z,74.95
2023-05-17T08:00:51.638Z,74.80
2023-05-17T08:03:22.666Z,74.66
2023-05-17T08:05:51.730Z,74.62
2023-05-17T08:08:21.634Z,74.58
2023-05-17T08:10:49.996Z,74.57
2023-05-17T08:13:17.543Z,74.57
2023-05-17T08:15:48.004Z,74.68
2023-05-17T08:18:18.065Z,74.61
2023-05-17T08:20:46.729Z,74.70
2023-05-17T08:23:14.481Z,74.67
2023-05-17T08:25:43.077Z,75.04
2023-05-17T08:28:13.901Z,75.31
2023-05-17T08:30:42.464Z,75.67
2023-05-17T08:33:11.727Z,75.56
2023-05-17T08:35:42.503Z,75.54
2023-05-17T08:38:12.456Z,75.28
2023-05-17T08:40:39.888Z,75.25
2023-05-17T08:43:09.174Z,75.21
2023-05-17T08:45:37.354Z,75.12
2023-05-17T08:48:05.864Z,75.11
2023-05-17T08:50:36.082Z,74.99
2023-05-17T08:53:04.827Z,74.97
2023-05-17T08:55:33.526Z,75.03
2023-05-17T08:58:01.603Z,74.85
2023-05-17T09:00:30.053Z,74.98
2023-05-17T09:02:58.107Z,74.83
2023-05-17T09:05:25.972Z,74.72
2023-05-17T09:07:55.967Z,75.31
2023-05-17T09:10:23.658Z,75.83
2023-05-17T09:12:51.526Z,75.44
2023-05-17T09:15:21.390Z,75.70
2023-05-17T09:17:55.397Z,75.71
2023-05-17T09:20:35.840Z,76.12
2023-05-17T09:23:04.886Z,75.89
2023-05-17T09:25:32.707Z,75.95
2023-05-17T09:28:06.312Z,76.06
2023-05-17T09:30:35.340Z,76.22
2023-05-17T09:33:11.854Z,76.93
2023-05-17T09:35:42.772Z,76.94
2023-05-17T09:38:13.060Z,76.86
2023-05-17T09:40:43.900Z,76.66
2023-05-17T09:43:14.632Z,76.55
2023-05-17T09:45:45.252Z,76.92
2023-05-17T09:48:18.312Z,76.78
2023-05-17T09:50:50.878Z,77.13
2023-05-17T09:53:40.709Z,77.34
2023-05-17T09:56:11.268Z,77.29
2023-05-17T09:58:39.638Z,77.08
2023-05-17T10:01:11.385Z,77.32
2023-05-17T10:03:39.751Z,77.44
2023-05-17T10:06:09.874Z,77.36
2023-05-17T10:08:43.797Z,77.65
2023-05-17T10:11:12.252Z,77.87
2023-05-17T10:13:50.178Z,77.97
2023-05-17T10:16:18.962Z,77.95
2023-05-17T10:18:49.164Z,77.81
2023-05-17T10:21:18.197Z,78.14
2023-05-17T10:23:49.118Z,78.06
2023-05-17T10:26:17.327Z,78.33
2023-05-17T10:28:46.731Z,77.96
2023-05-17T10:31:15.274Z,78.80
2023-05-17T10:33:48.349Z,78.70
2023-05-17T10:36:18.206Z,78.49
2023-05-17T10:38:46.558Z,78.77
2023-05-17T10:41:16.061Z,79.09
2023-05-17T10:43:45.261Z,78.97
2023-05-17T10:46:21.457Z,79.27
2023-05-17T10:48:52.229Z,79.12
2023-05-17T10:51:30.641Z,79.14
2023-05-17T10:54:09.358Z,79.55
2023-05-17T10:56:41.127Z,79.32
2023-05-17T10:59:20.041Z,79.77
2023-05-17T11:02:09.620Z,79.14
2023-05-17T11:04:39.478Z,79.25
2023-05-17T11:07:19.704Z,79.56
2023-05-17T11:09:51.047Z,79.43
2023-05-17T11:12:31.447Z,79.42
2023-05-17T11:15:01.184Z,79.51
2023-05-17T11:17:37.458Z,79.59
2023-05-17T11:20:11.605Z,79.26
2023-05-17T11:22:43.747Z,79.58
2023-05-17T11:25:13.866Z,79.40
2023-05-17T11:27:52.808Z,79.59
2023-05-17T11:30:29.106Z,79.69
2023-05-17T11:33:09.055Z,79.66
2023-05-17T11:35:46.314Z,79.70
2023-05-17T11:38:22.093Z,79.71
2023-05-17T11:40:53.097Z,79.96
2023-05-17T11:43:25.892Z,80.14
2023-05-17T11:45:59.280Z,79.94
2023-05-17T11:48:30.793Z,79.92
2023-05-17T11:51:00.765Z,79.88
2023-05-17T11:53:32.438Z,80.07
2023-05-17T11:56:06.656Z,80.41
2023-05-17T11:58:37.657Z,80.49
2023-05-17T12:01:06.435Z,80.83
2023-05-17T12:03:34.820Z,80.53
2023-05-17T12:06:06.331Z,80.73
2023-05-17T12:08:35.635Z,80.80
2023-05-17T12:11:04.661Z,80.86
2023-05-17T12:13:34.738Z,81.02
2023-05-17T12:16:10.333Z,81.24
2023-05-17T12:18:41.675Z,80.74
2023-05-17T12:21:14.373Z,80.91
2023-05-17T12:23:44.399Z,80.72
2023-05-17T12:26:20.597Z,80.86
2023-05-17T12:28:59.848Z,81.20
2023-05-17T12:31:35.524Z,81.24
2023-05-17T12:34:05.657Z,81.17
2023-05-17T12:36:34.525Z,81.30
2023-05-17T12:39:03.234Z,81.29
2023-05-17T12:41:31.479Z,81.39
2023-05-17T12:44:13.482Z,81.29
2023-05-17T12:46:43.127Z,81.41
2023-05-17T12:49:12.487Z,81.60
2023-05-17T12:51:43.628Z,81.49
2023-05-17T12:54:25.701Z,81.33
2023-05-17T12:56:53.370Z,80.98
2023-05-17T12:59:24.513Z,80.58
2023-05-17T13:01:56.572Z,80.72
2023-05-17T13:04:34.230Z,80.54
2023-05-17T13:07:05.406Z,80.43
2023-05-17T13:09:35.095Z,80.21
2023-05-17T13:12:07.905Z,80.30
2023-05-17T13:14:49.526Z,80.27
2023-05-17T13:17:25.533Z,80.17
2023-05-17T13:19:54.534Z,80.36
2023-05-17T13:22:22.224Z,80.07
2023-05-17T13:24:50.398Z,80.83
2023-05-17T13:27:18.063Z,80.65
2023-05-17T13:29:46.957Z,80.88
2023-05-17T13:32:14.935Z,80.65
2023-05-17T13:34:44.371Z,80.56
2023-05-17T13:37:12.780Z,81.29
2023-05-17T13:39:43.931Z,80.77
2023-05-17T13:42:13.153Z,80.53
2023-05-17T13:44:43.464Z,80.81
2023-05-17T13:47:12.271Z,80.86
2023-05-17T13:49:40.370Z,80.17
2023-05-17T13:52:13.621Z,80.27
2023-05-17T13:54:41.017Z,80.81
2023-05-17T13:57:08.865Z,80.36
2023-05-17T13:59:36.932Z,80.17
2023-05-17T14:02:04.939Z,80.07
2023-05-17T14:04:32.969Z,80.19
2023-05-17T14:07:04.620Z,80.29
2023-05-17T14:09:37.572Z,80.41
2023-05-17T14:12:05.899Z,80.91
2023-05-17T14:14:33.353Z,80.50
2023-05-17T14:17:02.156Z,80.74
2023-05-17T14:19:30.139Z,80.51
2023-05-17T14:21:57.920Z,80.70
2023-05-17T14:24:25.833Z,80.59
2023-05-17T14:26:53.372Z,80.64
2023-05-17T14:29:20.842Z,80.55
2023-05-17T14:31:51.954Z,80.76
2023-05-17T14:34:19.558Z,80.94
2023-05-17T14:36:46.903Z,80.56
2023-05-17T14:39:14.644Z,80.85
2023-05-17T14:41:44.123Z,80.95
2023-05-17T14:44:12.653Z,80.73
2023-05-17T14:46:40.004Z,80.72
2023-05-17T14:49:09.257Z,80.52
2023-05-17T14:51:37.509Z,80.66
2023-05-17T14:54:06.412Z,80.91
2023-05-17T14:56:34.033Z,81.31
2023-05-17T14:59:02.821Z,80.65
2023-05-17T15:01:30.075Z,80.86
2023-05-17T15:03:57.813Z,80.52
2023-05-17T15:06:25.906Z,80.65
2023-05-17T15:08:53.252Z,81.44
2023-05-17T15:11:20.822Z,81.07
2023-05-17T15:13:49.324Z,80.69
2023-05-17T15:16:17.004Z,80.91
2023-05-17T15:18:44.372Z,80.81
2023-05-17T15:21:11.913Z,80.77
2023-05-17T15:23:39.940Z,80.83
2023-05-17T15:26:07.510Z,80.58
2023-05-17T15:28:35.053Z,80.85
2023-05-17T15:31:07.457Z,80.52
2023-05-17T15:33:36.863Z,81.02
2023-05-17T15:36:04.387Z,81.29
2023-05-17T15:38:32.106Z,81.07
2023-05-17T15:41:07.930Z,80.91
2023-05-17T15:43:36.649Z,81.16
2023-05-17T15:46:04.191Z,80.95
2023-05-17T15:48:32.424Z,80.41
2023-05-17T15:51:03.761Z,80.69
2023-05-17T15:53:35.274Z,79.90
2023-05-17T15:56:03.033Z,79.66
2023-05-17T15:58:33.870Z,79.78
2023-05-17T16:01:05.396Z,79.86
2023-05-17T16:03:33.980Z,79.86
2023-05-17T16:06:01.767Z,79.04
2023-05-17T16:08:29.660Z,79.13
2023-05-17T16:10:57.474Z,79.44
2023-05-17T16:13:25.166Z,80.01
2023-05-17T16:15:52.876Z,80.14
2023-05-17T16:18:20.435Z,79.33
2023-05-17T16:20:48.097Z,78.65
2023-05-17T16:23:15.720Z,74.76
2023-05-17T16:25:44.411Z,73.31
2023-05-17T16:28:12.754Z,71.80
2023-05-17T16:30:40.471Z,71.60
2023-05-17T16:33:09.688Z,64.36
2023-05-17T16:35:36.906Z,66.34
2023-05-17T16:38:04.120Z,67.56
2023-05-17T16:40:33.679Z,68.65
2023-05-17T16:43:01.102Z,67.94
2023-05-17T16:45:28.467Z,68.87
2023-05-17T16:47:55.754Z,69.07
2023-05-17T16:50:23.036Z,70.03
2023-05-17T16:52:50.297Z,69.80
2023-05-17T16:55:17.380Z,67.29
2023-05-17T16:57:44.685Z,66.00
2023-05-17T17:00:12.667Z,68.52
2023-05-17T17:02:40.091Z,68.13
2023-05-17T17:05:07.721Z,69.35
2023-05-17T17:07:35.217Z,68.46
2023-05-17T17:10:02.279Z,66.72
2023-05-17T17:12:29.464Z,69.26
2023-05-17T17:14:56.574Z,68.35
2023-05-17T17:17:23.649Z,69.68
2023-05-17T17:19:50.757Z,69.35
2023-05-17T17:22:18.232Z,69.28
2023-05-17T17:24:45.598Z,69.86
2023-05-17T17:27:14.320Z,69.62
2023-05-17T17:29:41.536Z,68.41
2023-05-17T17:32:09.158Z,68.07
2023-05-17T17:34:36.165Z,67.81
2023-05-17T17:37:03.444Z,67.39
2023-05-17T17:39:30.837Z,66.81
2023-05-17T17:41:58.060Z,67.69
2023-05-17T17:44:25.375Z,66.88
2023-05-17T17:46:52.691Z,67.12
2023-05-17T17:49:19.764Z,67.54
2023-05-17T17:51:47.142Z,68.10
2023-05-17T17:54:15.894Z,66.50
2023-05-17T17:56:43.991Z,67.61
2023-05-17T17:59:12.670Z,67.69
2023-05-17T18:01:40.300Z,67.97
2023-05-17T18:04:07.740Z,68.68
2023-05-17T18:06:35.139Z,68.76
2023-05-17T18:09:02.449Z,67.91
2023-05-17T18:11:31.896Z,69.33
2023-05-17T18:13:59.154Z,67.96
2023-05-17T18:16:26.359Z,67.00
2023-05-17T18:18:53.706Z,68.24
2023-05-17T18:21:20.935Z,68.65
2023-05-17T18:23:48.253Z,67.55
2023-05-17T18:26:18.931Z,68.40
2023-05-17T18:28:46.391Z,69.05
2023-05-17T18:31:15.296Z,68.13
2023-05-17T18:33:42.486Z,66.11
2023-05-17T18:36:10.015Z,67.12
2023-05-17T18:38:37.275Z,68.17
2023-05-17T18:41:07.027Z,69.00
2023-05-17T18:43:34.209Z,68.43
2023-05-17T18:46:01.643Z,68.29
2023-05-17T18:48:29.040Z,66.87
2023-05-17T18:50:57.657Z,67.32
2023-05-17T18:53:26.412Z,66.98
2023-05-17T18:55:53.588Z,66.71
2023-05-17T18:58:20.932Z,67.66
2023-05-17T19:00:48.721Z,67.64
2023-05-17T19:03:15.839Z,67.07
2023-05-17T19:05:42.892Z,69.39
2023-05-17T19:08:10.182Z,69.52
2023-05-17T19:10:37.274Z,69.45
2023-05-17T19:13:06.694Z,69.69
2023-05-17T19:15:34.078Z,70.17
2023-05-17T19:18:01.372Z,70.89
2023-05-17T19:20:28.609Z,71.04
2023-05-17T19:22:56.166Z,70.03
2023-05-17T19:25:23.313Z,71.22
2023-05-17T19:27:50.744Z,71.33
2023-05-17T19:30:17.925Z,72.01
2023-05-17T19:32:45.625Z,71.20
2023-05-17T19:35:12.776Z,71.59
2023-05-17T19:37:40.202Z,72.13
2023-05-17T19:40:08.022Z,72.35
2023-05-17T19:42:35.367Z,72.13
2023-05-17T19:45:02.390Z,72.47
2023-05-17T19:47:29.721Z,72.41
2023-05-17T19:49:57.271Z,72.95
2023-05-17T19:52:25.810Z,73.33
2023-05-17T19:54:52.914Z,73.32
2023-05-17T19:57:20.395Z,72.88
2023-05-17T19:59:47.376Z,73.42
2023-05-17T20:02:14.914Z,73.19
2023-05-17T20:04:44.554Z,73.88
2023-05-17T20:07:11.772Z,74.15
2023-05-17T20:09:39.503Z,74.96
2023-05-17T20:12:07.642Z,74.66
2023-05-17T20:14:34.776Z,75.47
2023-05-17T20:17:02.008Z,75.09
2023-05-17T20:19:32.630Z,75.32
2023-05-17T20:22:01.826Z,74.95
2023-05-17T20:24:29.287Z,75.84
2023-05-17T20:26:59.893Z,75.86
2023-05-17T20:29:27.051Z,75.82
2023-05-17T20:31:54.362Z,76.08
2023-05-17T20:34:21.832Z,76.28
2023-05-17T20:36:50.257Z,76.63
2023-05-17T20:39:17.310Z,76.79
2023-05-17T20:41:44.408Z,77.11
2023-05-17T20:44:14.796Z,77.27
2023-05-17T20:46:42.149Z,77.44
2023-05-17T20:49:09.941Z,77.25
2023-05-17T20:51:37.147Z,77.46
2023-05-17T20:54:06.185Z,77.27
2023-05-17T20:56:35.248Z,77.56
2023-05-17T20:59:02.954Z,77.44
2023-05-17T21:01:30.194Z,77.48
2023-05-17T21:03:58.456Z,78.00
2023-05-17T21:06:29.175Z,78.11
2023-05-17T21:09:02.960Z,78.50
2023-05-17T21:11:30.862Z,77.92
2023-05-17T21:14:00.910Z,78.29
2023-05-17T21:16:28.367Z,78.65
2023-05-17T21:18:55.515Z,78.69
2023-05-17T21:21:22.478Z,78.82
2023-05-17T21:23:49.573Z,78.21
2023-05-17T21:26:16.943Z,78.10
2023-05-17T21:28:44.198Z,78.66
2023-05-17T21:31:11.689Z,79.15
2023-05-17T21:33:38.759Z,78.93
2023-05-17T21:36:06.248Z,78.30
2023-05-17T21:38:33.376Z,78.49
2023-05-17T21:41:00.498Z,78.04
2023-05-17T21:43:27.594Z,77.98
2023-05-17T21:45:57.126Z,77.98
2023-05-17T21:48:24.870Z,78.33
2023-05-17T21:50:52.370Z,78.48
2023-05-17T21:53:19.630Z,78.53
2023-05-17T21:56:01.348Z,79.20
2023-05-17T21:58:31.044Z,79.24
2023-05-17T22:00:58.602Z,78.78
2023-05-17T22:03:26.099Z,78.50
2023-05-17T22:05:53.359Z,79.21
2023-05-17T22:08:20.628Z,79.08
2023-05-17T22:10:47.803Z,79.40
2023-05-17T22:13:18.344Z,78.85
2023-05-17T22:15:45.935Z,78.83
2023-05-17T22:18:14.542Z,78.88
2023-05-17T22:20:42.311Z,78.37
2023-05-17T22:23:09.510Z,78.13
2023-05-17T22:25:37.101Z,78.77
2023-05-17T22:28:04.478Z,78.42
2023-05-17T22:30:32.054Z,78.53
2023-05-17T22:33:11.260Z,78.38
2023-05-17T22:35:41.296Z,79.24
2023-05-17T22:38:08.465Z,79.16
2023-05-17T22:40:35.918Z,78.67
2023-05-17T22:43:03.284Z,78.93
2023-05-17T22:45:33.412Z,78.66
2023-05-17T22:48:03.230Z,78.54
2023-05-17T22:50:54.842Z,79.10
2023-05-17T22:53:22.187Z,79.26
2023-05-17T22:55:53.874Z,79.59
2023-05-17T22:58:23.782Z,79.32
2023-05-17T23:00:51.382Z,78.85
2023-05-17T23:03:20.171Z,78.91
2023-05-17T23:05:47.655Z,78.54
2023-05-17T23:08:18.002Z,78.63
2023-05-17T23:10:45.852Z,79.29
2023-05-17T23:13:14.066Z,79.01
2023-05-17T23:15:47.125Z,79.17
2023-05-17T23:18:14.688Z,79.40
2023-05-17T23:20:42.338Z,78.89
2023-05-17T23:23:16.289Z,78.92
2023-05-17T23:25:48.793Z,78.83
2023-05-17T23:28:19.549Z,78.88
2023-05-17T23:30:49.115Z,78.97
2023-05-17T23:33:16.701Z,79.27
2023-05-17T23:35:43.937Z,79.19
2023-05-17T23:38:11.433Z,78.63
2023-05-17T23:40:42.066Z,78.78
2023-05-17T23:43:10.429Z,79.05
2023-05-17T23:45:37.789Z,78.47
2023-05-17T23:48:05.290Z,78.66
2023-05-17T23:50:32.707Z,78.69
2023-05-17T23:53:03.623Z,79.11
2023-05-17T23:55:31.718Z,79.22
2023-05-17T23:58:04.398Z,79.25
